Time;durP1;ratioP1;P1;durP2;ratioP2;P2;SDS_P1;SDS_P2;PMS_P1;PMS_P2;Temp;Humidity;BMP_temperature;BMP_pressure;BME280_temperature;BME280_humidity;BME280_pressure;Samples;Min_cycle;Max_cycle;Signal;HPM_P1;HPM_P2
2023/06/09 00:01:53;;;;;;;6.57;4.93;;;;;;;11.68;100.00;101668.53;5039454;28;20218;-52
2023/06/09 00:04:20;;;;;;;7.88;4.60;;;;;;;11.77;100.00;101667.38;5041703;28;20187;-54
2023/06/09 00:06:46;;;;;;;8.57;4.82;;;;;;;11.72;100.00;101662.13;5037922;28;20204;-52
2023/06/09 00:09:13;;;;;;;7.47;4.50;;;;;;;11.84;100.00;101652.81;5033904;28;20264;-52
2023/06/09 00:11:39;;;;;;;8.73;4.80;;;;;;;11.68;100.00;101654.22;5034363;28;20184;-52
2023/06/09 00:14:04;;;;;;;5.03;4.38;;;;;;;11.58;100.00;101663.47;5033868;28;20233;-52
2023/06/09 00:16:30;;;;;;;6.32;4.90;;;;;;;11.61;100.00;101658.00;5067665;28;20211;-53
2023/06/09 00:19:01;;;;;;;9.85;5.35;;;;;;;11.62;100.00;101662.47;5039797;28;20175;-53
2023/06/09 00:21:27;;;;;;;11.30;5.32;;;;;;;11.45;100.00;101654.88;5029633;22;20225;-45
2023/06/09 00:23:52;;;;;;;5.78;4.43;;;;;;;11.57;100.00;101654.53;5001613;28;20259;-45
2023/06/09 00:26:18;;;;;;;6.57;4.68;;;;;;;11.45;100.00;101655.75;4999372;28;20214;-44
2023/06/09 00:28:47;;;;;;;6.85;4.60;;;;;;;11.34;100.00;101649.81;4998351;28;20176;-45
2023/06/09 00:31:12;;;;;;;9.13;5.15;;;;;;;11.41;100.00;101650.53;5002615;28;20193;-47
2023/06/09 00:33:38;;;;;;;6.13;4.97;;;;;;;11.49;100.00;101657.44;4999318;28;20199;-45
2023/06/09 00:36:04;;;;;;;5.93;4.70;;;;;;;11.47;100.00;101655.72;5008535;28;20530;-44
2023/06/09 00:38:29;;;;;;;10.00;6.15;;;;;;;11.36;100.00;101653.34;4980219;28;20200;-43
2023/06/09 00:40:55;;;;;;;7.03;4.65;;;;;;;11.36;100.00;101656.03;4992335;28;20228;-47
2023/06/09 00:43:20;;;;;;;7.45;4.88;;;;;;;11.27;100.00;101657.16;5001440;28;20185;-47
2023/06/09 00:45:46;;;;;;;8.90;4.95;;;;;;;11.27;100.00;101649.13;4996575;28;20188;-45
2023/06/09 00:48:12;;;;;;;7.35;4.38;;;;;;;11.26;100.00;101651.81;5004345;28;20227;-47
2023/06/09 00:50:40;;;;;;;6.30;5.15;;;;;;;11.27;100.00;101656.28;4997605;28;20280;-49
2023/06/09 00:53:07;;;;;;;5.40;4.47;;;;;;;11.29;100.00;101657.13;4997785;28;20200;-48
2023/06/09 00:55:34;;;;;;;8.05;4.65;;;;;;;11.26;100.00;101657.19;5002809;28;20268;-46
2023/06/09 00:58:02;;;;;;;7.75;4.70;;;;;;;11.19;100.00;101661.84;4999180;28;20247;-45
2023/06/09 01:00:28;;;;;;;7.10;4.78;;;;;;;11.25;100.00;101652.78;5003807;28;20227;-48
2023/06/09 01:03:01;;;;;;;10.27;5.22;;;;;;;11.04;100.00;101654.22;4994605;28;20271;-47
2023/06/09 01:05:34;;;;;;;7.13;5.40;;;;;;;10.93;100.00;101657.19;4999572;28;20177;-45
2023/06/09 01:08:13;;;;;;;5.70;4.55;;;;;;;11.02;100.00;101661.44;4994574;28;20209;-46
2023/06/09 01:10:43;;;;;;;5.35;4.50;;;;;;;11.07;100.00;101665.75;5004212;28;20187;-45
2023/06/09 01:13:24;;;;;;;9.93;4.93;;;;;;;10.81;100.00;101666.44;5001183;28;20260;-45
2023/06/09 01:15:56;;;;;;;7.55;5.07;;;;;;;10.84;100.00;101657.44;4997871;28;20189;-48
2023/06/09 01:18:24;;;;;;;8.18;5.13;;;;;;;10.78;100.00;101679.94;4999368;28;20663;-46
2023/06/09 01:21:12;;;;;;;8.27;5.07;;;;;;;10.80;100.00;101675.41;5001123;28;20232;-46
2023/06/09 01:24:19;;;;;;;7.47;4.82;;;;;;;10.85;100.00;101686.03;5003425;28;20260;-44
2023/06/09 01:26:45;;;;;;;7.70;4.72;;;;;;;10.78;100.00;101671.91;5008521;28;20740;-44
2023/06/09 01:29:15;;;;;;;5.03;4.53;;;;;;;10.81;100.00;101684.34;4997243;28;20195;-46
2023/06/09 01:31:41;;;;;;;7.00;4.88;;;;;;;10.88;100.00;101683.25;5007694;28;20188;-46
2023/06/09 01:34:06;;;;;;;8.73;4.88;;;;;;;10.78;100.00;101673.66;4999495;28;20555;-46
2023/06/09 01:36:33;;;;;;;7.53;4.75;;;;;;;10.76;100.00;101673.72;5002723;28;20579;-45
2023/06/09 01:39:00;;;;;;;6.88;4.70;;;;;;;10.53;100.00;101679.66;5000909;28;20189;-45
2023/06/09 01:41:25;;;;;;;5.60;4.70;;;;;;;10.49;100.00;101672.59;5004561;28;20226;-46
2023/06/09 01:43:52;;;;;;;6.95;4.75;;;;;;;10.47;100.00;101663.72;4999468;28;20189;-47
2023/06/09 01:46:17;;;;;;;6.63;4.82;;;;;;;10.45;100.00;101665.56;5003796;28;20216;-45
2023/06/09 01:49:08;;;;;;;7.90;4.82;;;;;;;10.51;100.00;101668.97;4998805;28;20180;-47
2023/06/09 01:51:40;;;;;;;7.72;4.45;;;;;;;10.56;100.00;101667.97;5012926;28;20216;-45
2023/06/09 01:54:09;;;;;;;7.57;5.03;;;;;;;10.53;100.00;101663.56;5001475;28;20185;-46
2023/06/09 01:56:46;;;;;;;5.75;4.80;;;;;;;10.44;100.00;101666.50;4996826;28;20692;-47
2023/06/09 01:59:23;;;;;;;7.68;4.68;;;;;;;10.36;100.00;101665.78;4993080;28;20177;-46
2023/06/09 02:01:52;;;;;;;7.93;4.68;;;;;;;10.35;100.00;101664.91;5003592;28;20193;-45
2023/06/09 02:04:23;;;;;;;7.78;4.30;;;;;;;10.30;100.00;101666.81;5007414;28;20450;-45
2023/06/09 02:06:49;;;;;;;9.25;5.03;;;;;;;10.35;100.00;101664.03;5012595;28;20594;-47
2023/06/09 02:09:16;;;;;;;10.95;4.75;;;;;;;10.24;100.00;101665.13;5006752;28;20616;-47
2023/06/09 02:11:42;;;;;;;5.97;4.63;;;;;;;10.20;100.00;101668.78;4995009;28;20172;-46
2023/06/09 02:14:15;;;;;;;5.13;4.45;;;;;;;10.27;100.00;101661.50;5001848;28;20188;-45
2023/06/09 02:16:40;;;;;;;7.78;5.13;;;;;;;10.31;100.00;101661.41;4976980;28;20216;-47
2023/06/09 02:19:06;;;;;;;6.20;4.50;;;;;;;10.34;100.00;101668.50;4985775;28;20179;-49
2023/06/09 02:21:31;;;;;;;8.10;5.40;;;;;;;10.35;100.00;101664.91;5002051;28;20756;-51
2023/06/09 02:23:57;;;;;;;6.60;4.40;;;;;;;10.18;100.00;101654.56;5002511;28;20181;-51
2023/06/09 02:26:22;;;;;;;7.05;4.50;;;;;;;10.35;100.00;101664.03;4991581;28;20234;-50
2023/06/09 02:28:48;;;;;;;9.07;5.03;;;;;;;10.20;100.00;101666.09;4996454;28;20255;-52
2023/06/09 02:31:13;;;;;;;8.55;4.97;;;;;;;10.09;100.00;101669.03;4999454;28;20173;-54
2023/06/09 02:33:39;;;;;;;5.18;4.63;;;;;;;10.25;100.00;101669.56;4982188;28;20276;-51
2023/06/09 02:36:05;;;;;;;7.15;4.20;;;;;;;10.31;100.00;101677.47;4982950;28;20224;-53
2023/06/09 02:38:31;;;;;;;6.00;4.32;;;;;;;10.35;100.00;101672.06;4991290;28;20173;-52
2023/06/09 02:40:57;;;;;;;5.60;4.78;;;;;;;10.28;100.00;101674.84;4999445;28;20277;-53
2023/06/09 02:43:23;;;;;;;7.25;3.90;;;;;;;10.29;100.00;101675.75;4997294;28;20197;-51
2023/06/09 02:45:48;;;;;;;5.03;4.10;;;;;;;10.31;100.00;101680.16;5000566;28;20219;-52
2023/06/09 02:48:17;;;;;;;7.97;4.32;;;;;;;10.29;100.00;101675.75;4979619;28;20181;-51
2023/06/09 02:50:42;;;;;;;7.57;4.93;;;;;;;10.22;100.00;101675.00;4997186;28;20188;-51
2023/06/09 02:53:10;;;;;;;7.05;4.38;;;;;;;10.29;100.00;101676.63;4969586;28;20675;-54
2023/06/09 02:55:36;;;;;;;9.23;4.38;;;;;;;10.23;100.00;101681.22;5003245;28;20197;-52
2023/06/09 02:58:02;;;;;;;8.45;4.07;;;;;;;10.17;100.00;101670.69;4986164;28;20204;-51
2023/06/09 03:04:17;;;;;;;5.82;3.83;;;;;;;10.20;100.00;101676.81;4995328;28;20191;-51
2023/06/09 03:06:48;;;;;;;6.80;4.35;;;;;;;10.27;100.00;101688.28;4999282;28;20610;-53
2023/06/09 03:09:15;;;;;;;6.47;4.72;;;;;;;10.20;100.00;101683.97;4997378;28;20224;-52
2023/06/09 03:11:42;;;;;;;7.45;4.45;;;;;;;10.25;100.00;101692.78;4998091;28;20180;-52
2023/06/09 03:14:08;;;;;;;7.28;4.10;;;;;;;10.27;100.00;101689.16;4981039;28;20244;-51
2023/06/09 03:16:34;;;;;;;6.35;3.95;;;;;;;10.22;100.00;101687.50;4976456;28;20251;-52
2023/06/09 03:19:00;;;;;;;8.18;4.15;;;;;;;10.06;100.00;101682.50;4980353;28;20249;-52
2023/06/09 03:21:27;;;;;;;6.20;4.28;;;;;;;10.05;100.00;101691.44;4999454;28;20347;-49
2023/06/09 03:23:54;;;;;;;6.55;4.13;;;;;;;10.12;100.00;101692.19;4999117;28;20189;-51
2023/06/09 03:26:20;;;;;;;5.97;4.60;;;;;;;10.18;100.00;101691.16;4996566;28;20621;-50
2023/06/09 03:28:45;;;;;;;7.40;3.92;;;;;;;10.20;100.00;101698.25;4977889;28;20630;-51
2023/06/09 03:31:13;;;;;;;6.35;4.85;;;;;;;10.14;100.00;101698.38;4997091;28;20199;-50
2023/06/09 03:33:40;;;;;;;10.55;5.10;;;;;;;10.07;100.00;101704.78;4980648;28;20212;-51
2023/06/09 03:36:08;;;;;;;7.45;4.70;;;;;;;10.09;100.00;101703.84;4979286;28;20291;-50
2023/06/09 03:38:34;;;;;;;6.03;4.32;;;;;;;10.16;100.00;101706.38;4999975;28;20195;-51
2023/06/09 03:41:00;;;;;;;5.80;4.47;;;;;;;10.21;100.00;101709.84;4996018;28;20572;-51
2023/06/09 03:47:41;;;;;;;6.07;3.90;;;;;;;10.28;100.00;101701.63;4997598;28;20270;-52
2023/06/09 03:50:08;;;;;;;5.95;4.15;;;;;;;10.36;100.00;101708.63;4990381;28;20188;-51
2023/06/09 03:56:20;;;;;;;5.57;4.03;;;;;;;10.45;100.00;101714.69;4992343;28;20236;-51
2023/06/09 03:58:57;;;;;;;5.13;3.95;;;;;;;10.51;100.00;101708.28;4982293;28;20941;-51
2023/06/09 04:02:18;;;;;;;6.10;4.20;;;;;;;10.55;100.00;101709.97;4980276;28;20196;-52
2023/06/09 04:04:44;;;;;;;7.55;4.30;;;;;;;10.63;100.00;101710.69;4995458;28;20189;-53
2023/06/09 04:07:52;;;;;;;6.78;4.80;;;;;;;10.63;100.00;101710.69;4995632;28;20709;-52
2023/06/09 04:10:43;;;;;;;7.38;5.13;;;;;;;10.64;100.00;101719.59;4999597;28;20184;-50
2023/06/09 04:16:55;;;;;;;7.40;5.20;;;;;;;10.71;100.00;101707.78;4992125;28;20200;-52
2023/06/09 04:19:22;;;;;;;7.78;5.20;;;;;;;10.77;100.00;101712.13;4980606;28;20201;-51
2023/06/09 04:21:49;;;;;;;5.90;4.95;;;;;;;10.84;100.00;101716.41;4988905;28;20283;-51
2023/06/09 04:24:15;;;;;;;8.75;5.22;;;;;;;10.98;100.00;101721.44;4997316;28;20192;-52
2023/06/09 04:26:43;;;;;;;9.13;5.55;;;;;;;11.00;100.00;101722.25;4999425;28;20204;-54
2023/06/09 04:29:10;;;;;;;6.28;4.63;;;;;;;11.08;100.00;101725.63;4994291;28;20901;-51
2023/06/09 04:31:42;;;;;;;7.95;4.78;;;;;;;11.16;100.00;101728.13;5001445;28;20523;-54
2023/06/09 04:34:11;;;;;;;8.07;5.18;;;;;;;11.17;100.00;101717.34;4995681;28;20181;-52
2023/06/09 04:36:38;;;;;;;6.03;4.70;;;;;;;11.25;100.00;101717.16;4997521;28;20204;-53
2023/06/09 04:39:07;;;;;;;8.10;5.18;;;;;;;11.36;100.00;101719.53;5000012;28;20256;-51
2023/06/09 04:41:34;;;;;;;9.25;5.55;;;;;;;11.65;100.00;101711.53;4981157;28;20197;-50
2023/06/09 04:44:06;;;;;;;9.23;5.78;;;;;;;11.80;100.00;101717.41;4993996;28;20188;-51
2023/06/09 04:46:37;;;;;;;10.85;6.90;;;;;;;11.93;100.00;101717.03;4997436;28;20212;-50
2023/06/09 04:49:10;;;;;;;9.02;6.63;;;;;;;12.04;100.00;101722.06;4977685;28;20300;-51
2023/06/09 04:51:47;;;;;;;19.38;8.02;;;;;;;12.56;100.00;101716.91;5000856;28;20196;-49
2023/06/09 04:54:25;;;;;;;15.63;8.10;;;;;;;12.73;100.00;101722.59;4996299;28;20623;-52
2023/06/09 04:56:57;;;;;;;16.55;8.30;;;;;;;12.87;100.00;101718.56;4999485;28;20705;-51
2023/06/09 04:59:28;;;;;;;13.75;7.82;;;;;;;12.95;100.00;101714.69;4998039;28;20254;-51
2023/06/09 05:01:55;;;;;;;17.60;8.15;;;;;;;13.18;100.00;101715.72;4997372;28;20201;-51
2023/06/09 05:04:23;;;;;;;20.20;8.60;;;;;;;13.24;100.00;101715.50;4992957;28;20659;-51
2023/06/09 05:06:49;;;;;;;18.58;8.98;;;;;;;13.39;100.00;101720.38;4980437;28;20209;-51
2023/06/09 05:09:14;;;;;;;17.77;8.80;;;;;;;13.44;100.00;101724.72;4995680;28;20193;-51
2023/06/09 05:11:41;;;;;;;21.80;8.57;;;;;;;13.53;100.00;101717.16;4995915;28;20240;-51
2023/06/09 05:14:07;;;;;;;20.70;8.52;;;;;;;13.66;100.00;101731.06;4979750;28;20659;-52
2023/06/09 05:16:34;;;;;;;20.33;8.35;;;;;;;13.73;100.00;101732.63;4997212;28;20197;-51
2023/06/09 05:19:03;;;;;;;17.65;7.82;;;;;;;13.82;100.00;101728.72;4996884;28;20668;-51
2023/06/09 05:21:29;;;;;;;13.63;7.47;;;;;;;13.90;100.00;101731.09;4994235;28;20196;-52
2023/06/09 05:23:55;;;;;;;16.05;7.72;;;;;;;13.99;100.00;101734.34;4994283;28;20182;-52
2023/06/09 05:26:21;;;;;;;13.48;7.32;;;;;;;14.07;100.00;101734.03;4999212;28;20207;-50
2023/06/09 05:28:48;;;;;;;21.95;7.93;;;;;;;14.18;100.00;101730.94;4998824;28;20169;-51
2023/06/09 05:31:17;;;;;;;19.35;7.68;;;;;;;14.26;100.00;101723.44;4997240;28;20189;-53
2023/06/09 05:33:43;;;;;;;12.85;6.85;;;;;;;14.30;100.00;101721.47;4999115;28;20193;-52
2023/06/09 05:36:10;;;;;;;17.35;7.13;;;;;;;14.40;100.00;101722.88;4995892;28;20568;-51
2023/06/09 05:38:40;;;;;;;13.70;7.20;;;;;;;14.47;100.00;101734.28;4999951;28;20679;-53
2023/06/09 05:41:06;;;;;;;15.00;7.07;;;;;;;14.50;100.00;101737.75;5001301;28;20287;-51
2023/06/09 05:43:31;;;;;;;17.40;6.78;;;;;;;14.51;100.00;101736.78;5004739;28;20238;-51
2023/06/09 05:45:57;;;;;;;14.48;6.97;;;;;;;14.58;100.00;101740.16;4983423;28;20178;-51
2023/06/09 05:48:23;;;;;;;17.20;7.25;;;;;;;14.60;100.00;101739.16;4991723;28;20243;-49
2023/06/09 05:50:49;;;;;;;17.75;7.25;;;;;;;14.71;100.00;101745.94;4999222;28;20660;-51
2023/06/09 05:53:17;;;;;;;16.30;7.00;;;;;;;14.69;100.00;101739.72;5001139;28;20185;-50
2023/06/09 05:55:45;;;;;;;18.13;7.93;;;;;;;14.70;100.00;101738.78;4999244;28;20199;-52
2023/06/09 05:58:11;;;;;;;19.60;7.65;;;;;;;14.78;100.00;101745.63;5001509;28;20434;-51
2023/06/09 06:00:37;;;;;;;15.35;7.70;;;;;;;14.79;100.00;101750.06;5000740;28;20208;-50
2023/06/09 06:03:03;;;;;;;15.70;7.25;;;;;;;14.80;100.00;101746.44;4996050;28;20231;-51
2023/06/09 06:05:29;;;;;;;30.05;8.95;;;;;;;14.84;100.00;101753.44;5002125;28;20201;-50
2023/06/09 06:07:58;;;;;;;16.05;8.27;;;;;;;14.96;100.00;101745.81;5002426;28;20198;-50
2023/06/09 06:10:24;;;;;;;18.83;7.78;;;;;;;14.97;100.00;101756.53;4981135;28;20185;-49
2023/06/09 06:12:50;;;;;;;19.98;7.95;;;;;;;15.04;100.00;101754.44;5000404;28;20336;-50
2023/06/09 06:15:15;;;;;;;20.50;7.90;;;;;;;15.02;100.00;101757.22;4997346;28;20443;-49
2023/06/09 06:17:41;;;;;;;16.13;7.00;;;;;;;15.23;100.00;101752.72;4994201;28;20612;-49
2023/06/09 06:20:07;;;;;;;18.05;7.10;;;;;;;15.39;100.00;101763.75;5001090;28;20549;-48
2023/06/09 06:22:32;;;;;;;16.30;8.00;;;;;;;15.42;100.00;101751.94;4995742;28;20759;-48
2023/06/09 06:24:58;;;;;;;18.95;7.72;;;;;;;15.48;100.00;101757.06;4999498;28;20189;-49
2023/06/09 06:27:23;;;;;;;16.65;7.95;;;;;;;15.42;100.00;101754.63;5000270;28;20252;-48
2023/06/09 06:29:49;;;;;;;13.65;7.45;;;;;;;15.62;100.00;101760.03;4998715;28;20303;-48
2023/06/09 06:32:14;;;;;;;16.52;7.88;;;;;;;15.71;100.00;101758.78;5000836;28;20200;-48
2023/06/09 06:34:40;;;;;;;14.40;7.50;;;;;;;15.63;100.00;101751.00;4999642;28;20192;-48
2023/06/09 06:37:06;;;;;;;15.50;7.93;;;;;;;15.57;100.00;101740.47;4997081;28;20233;-47
2023/06/09 06:39:31;;;;;;;14.80;7.05;;;;;;;15.82;100.00;101752.88;4998160;28;20663;-48
2023/06/09 06:41:57;;;;;;;17.33;7.68;;;;;;;16.02;100.00;101750.13;4998932;28;20240;-47
2023/06/09 06:44:27;;;;;;;15.70;8.10;;;;;;;15.82;100.00;101745.66;4997407;28;20196;-47
2023/06/09 06:46:52;;;;;;;15.38;7.82;;;;;;;16.07;100.00;101755.34;5000221;28;20205;-48
2023/06/09 06:49:18;;;;;;;13.90;7.22;;;;;;;16.16;100.00;101740.50;5001603;28;20212;-48
2023/06/09 06:51:44;;;;;;;20.67;7.68;;;;;;;16.19;100.00;101743.06;4999005;28;20270;-48
2023/06/09 06:54:09;;;;;;;17.48;7.72;;;;;;;16.25;100.00;101740.09;5000033;28;20220;-47
2023/06/09 06:56:36;;;;;;;18.20;7.55;;;;;;;16.50;100.00;101739.78;4999655;28;20339;-48
2023/06/09 06:59:01;;;;;;;15.85;7.63;;;;;;;16.60;100.00;101741.09;5000821;28;20228;-48
2023/06/09 07:01:28;;;;;;;15.40;6.90;;;;;;;16.83;100.00;101739.09;5004791;28;20756;-50
2023/06/09 07:03:55;;;;;;;19.60;8.30;;;;;;;16.78;100.00;101744.72;5035919;22;20215;-47
2023/06/09 07:06:21;;;;;;;17.27;7.50;;;;;;;16.84;100.00;101744.44;5039282;28;20215;-47
2023/06/09 07:08:46;;;;;;;22.63;7.80;;;;;;;16.79;100.00;101741.06;5037986;28;20276;-46
2023/06/09 07:11:12;;;;;;;17.88;7.50;;;;;;;16.89;100.00;101736.97;5038874;28;20172;-47
2023/06/09 07:13:37;;;;;;;16.02;6.85;;;;;;;16.80;100.00;101752.78;5039573;28;20178;-47
2023/06/09 07:16:03;;;;;;;13.73;6.97;;;;;;;17.09;100.00;101737.78;5046425;28;20290;-46
2023/06/09 07:18:29;;;;;;;18.00;8.23;;;;;;;17.04;100.00;101739.84;5071223;28;20179;-47
2023/06/09 07:20:55;;;;;;;15.85;7.68;;;;;;;16.96;100.00;101739.38;5042075;28;20525;-46
2023/06/09 07:23:21;;;;;;;13.68;7.75;;;;;;;17.16;100.00;101750.03;5042076;28;20203;-46
2023/06/09 07:25:46;;;;;;;14.48;7.68;;;;;;;17.19;100.00;101736.38;5039400;28;20181;-46
2023/06/09 07:28:12;;;;;;;15.05;7.47;;;;;;;17.33;100.00;101746.47;5038237;28;20187;-46
2023/06/09 07:30:41;;;;;;;15.23;8.23;;;;;;;17.56;100.00;101753.41;5039996;28;20188;-46
2023/06/09 07:33:08;;;;;;;18.25;8.27;;;;;;;17.60;100.00;101755.00;5039139;28;20237;-47
2023/06/09 07:35:33;;;;;;;17.55;7.72;;;;;;;17.60;100.00;101752.28;5038519;28;20266;-46
2023/06/09 07:37:59;;;;;;;13.38;8.13;;;;;;;17.65;100.00;101752.91;5039037;28;20310;-42
2023/06/09 07:40:24;;;;;;;13.45;7.30;;;;;;;17.81;100.00;101754.81;5045576;28;20671;-43
2023/06/09 07:42:50;;;;;;;15.13;7.38;;;;;;;17.63;100.00;101751.25;5039232;28;20658;-44
2023/06/09 07:45:15;;;;;;;14.63;7.28;;;;;;;18.06;100.00;101757.97;5037060;28;20172;-44
2023/06/09 07:47:41;;;;;;;16.08;7.72;;;;;;;17.75;100.00;101745.16;5040576;28;20200;-44
2023/06/09 07:50:08;;;;;;;17.77;8.10;;;;;;;17.98;100.00;101749.38;5034878;28;20192;-45
2023/06/09 07:52:34;;;;;;;18.48;7.15;;;;;;;18.17;100.00;101743.81;5037576;28;20600;-45
2023/06/09 07:54:59;;;;;;;14.27;7.18;;;;;;;18.32;100.00;101733.94;5032876;28;20207;-44
2023/06/09 07:57:25;;;;;;;15.07;7.65;;;;;;;18.02;100.00;101736.53;5036154;28;20690;-44
2023/06/09 07:59:50;;;;;;;23.33;8.10;;;;;;;18.10;100.00;101740.59;5044459;28;20174;-45
2023/06/09 08:02:16;;;;;;;16.45;7.40;;;;;;;18.32;100.00;101742.97;5038521;28;20642;-44
2023/06/09 08:04:42;;;;;;;19.77;8.40;;;;;;;18.49;100.00;101742.00;5041567;28;20199;-45
2023/06/09 08:07:09;;;;;;;16.90;7.70;;;;;;;18.45;100.00;101743.13;5037699;28;20718;-46
2023/06/09 08:09:34;;;;;;;16.23;8.20;;;;;;;18.68;100.00;101744.53;5034037;28;20176;-45
2023/06/09 08:12:00;;;;;;;17.50;8.27;;;;;;;18.12;100.00;101749.47;5038431;28;20194;-46
2023/06/09 08:14:25;;;;;;;16.73;8.05;;;;;;;18.20;100.00;101749.06;5045675;28;20176;-45
2023/06/09 08:16:52;;;;;;;16.40;8.35;;;;;;;18.31;100.00;101751.19;5040227;28;20261;-45
2023/06/09 08:19:17;;;;;;;19.05;8.60;;;;;;;18.34;100.00;101753.72;5039327;28;20196;-46
2023/06/09 08:21:43;;;;;;;18.83;8.32;;;;;;;18.04;100.00;101746.34;5037829;28;20196;-47
2023/06/09 08:24:12;;;;;;;26.50;9.43;;;;;;;18.15;100.00;101750.28;5035607;28;20258;-43
2023/06/09 08:26:38;;;;;;;21.00;9.40;;;;;;;18.55;100.00;101748.06;5038814;28;20203;-47
2023/06/09 08:29:04;;;;;;;18.85;8.25;;;;;;;18.46;100.00;101749.44;5039125;28;20597;-43
2023/06/09 08:31:31;;;;;;;20.30;8.20;;;;;;;18.57;100.00;101737.97;5037594;28;20187;-48
2023/06/09 08:33:57;;;;;;;15.27;8.15;;;;;;;18.64;100.00;101739.38;5037562;28;20526;-46
2023/06/09 08:36:23;;;;;;;18.08;8.82;;;;;;;18.40;100.00;101747.09;5035414;28;20210;-46
2023/06/09 08:38:48;;;;;;;19.35;8.23;;;;;;;18.38;100.00;101739.00;5046047;28;20598;-45
2023/06/09 08:41:15;;;;;;;18.48;8.70;;;;;;;18.60;100.00;101754.09;5036091;28;20515;-45
2023/06/09 08:43:41;;;;;;;19.52;8.82;;;;;;;18.49;100.00;101746.56;5036909;28;20662;-45
2023/06/09 08:46:10;;;;;;;14.63;8.95;;;;;;;18.63;100.00;101754.78;5039482;28;20207;-47
2023/06/09 08:48:41;;;;;;;17.67;8.20;;;;;;;18.79;100.00;101754.81;5035656;28;20178;-45
2023/06/09 08:51:08;;;;;;;18.40;9.10;;;;;;;18.66;99.62;101757.31;5035855;28;20187;-46
2023/06/09 08:53:34;;;;;;;19.65;9.05;;;;;;;18.96;99.75;101752.94;5038388;28;20172;-46
2023/06/09 08:56:01;;;;;;;21.45;9.10;;;;;;;18.82;98.90;101754.63;5039289;28;20171;-46
2023/06/09 08:58:27;;;;;;;16.58;9.13;;;;;;;18.99;98.91;101752.78;5036739;28;20677;-46
2023/06/09 09:00:54;;;;;;;18.15;8.93;;;;;;;18.80;98.35;101753.81;5038850;28;20175;-44
2023/06/09 09:03:20;;;;;;;20.58;9.25;;;;;;;18.74;99.63;101751.47;5037528;28;20243;-44
2023/06/09 09:05:46;;;;;;;17.05;8.65;;;;;;;18.82;99.38;101751.91;5034963;28;20544;-46
2023/06/09 09:08:13;;;;;;;19.48;8.73;;;;;;;18.90;98.86;101751.47;5039580;28;20176;-46
2023/06/09 09:10:43;;;;;;;19.38;8.88;;;;;;;18.77;99.05;101744.97;5038977;28;20187;-46
2023/06/09 09:13:12;;;;;;;18.60;9.13;;;;;;;18.72;99.09;101754.25;5041584;28;20684;-44
2023/06/09 09:15:51;;;;;;;18.88;9.23;;;;;;;18.85;98.61;101748.16;5039226;28;20191;-45
2023/06/09 09:18:17;;;;;;;33.40;10.77;;;;;;;18.85;99.33;101751.75;5042358;28;20249;-47
2023/06/09 09:20:43;;;;;;;15.10;8.55;;;;;;;18.87;98.65;101752.53;5045385;28;20196;-46
2023/06/09 09:23:09;;;;;;;18.13;9.13;;;;;;;18.99;98.47;101740.06;5037714;28;20287;-46
2023/06/09 09:25:35;;;;;;;16.98;8.70;;;;;;;19.09;97.90;101754.84;5037915;28;20190;-45
2023/06/09 09:28:05;;;;;;;16.92;8.73;;;;;;;19.09;97.00;101737.69;5048463;28;20207;-45
2023/06/09 09:30:51;;;;;;;14.90;7.88;;;;;;;19.39;96.49;101748.53;5044990;28;20598;-46
2023/06/09 09:33:27;;;;;;;17.50;8.30;;;;;;;19.08;96.44;101746.78;5041892;28;20453;-46
2023/06/09 09:35:54;;;;;;;15.75;7.68;;;;;;;19.22;96.01;101749.56;5037590;28;20253;-46
2023/06/09 09:38:24;;;;;;;17.55;9.15;;;;;;;19.23;95.14;101750.44;5038154;28;20672;-46
2023/06/09 09:40:51;;;;;;;17.15;9.18;;;;;;;19.02;95.99;101752.56;5038444;28;20307;-47
2023/06/09 09:43:18;;;;;;;15.80;8.80;;;;;;;19.02;96.05;101748.03;5038267;28;20606;-46
2023/06/09 09:45:49;;;;;;;17.67;8.82;;;;;;;18.91;96.08;101754.09;5040174;28;20183;-46
2023/06/09 09:48:17;;;;;;;19.20;9.23;;;;;;;19.23;96.19;101751.31;5042602;28;20229;-46
2023/06/09 09:50:44;;;;;;;18.00;8.70;;;;;;;18.86;97.07;101749.91;5039595;28;20182;-46
2023/06/09 09:53:11;;;;;;;20.75;8.98;;;;;;;19.04;97.24;101750.66;5042447;28;20278;-46
2023/06/09 09:55:38;;;;;;;17.90;9.07;;;;;;;18.60;97.45;101759.50;5037786;28;20194;-44
2023/06/09 09:58:06;;;;;;;18.38;8.90;;;;;;;18.90;98.18;101755.06;5040150;28;20693;-46
2023/06/09 10:00:36;;;;;;;18.25;9.52;;;;;;;19.21;97.28;101758.66;5041895;28;20179;-45
2023/06/09 10:03:14;;;;;;;20.30;8.55;;;;;;;19.54;96.46;101755.75;5040352;28;20212;-46
2023/06/09 10:05:47;;;;;;;17.00;8.68;;;;;;;19.03;96.72;101757.94;5039028;28;20186;-46
2023/06/09 10:08:27;;;;;;;19.17;9.40;;;;;;;18.83;96.75;101750.97;5042185;28;20253;-44
2023/06/09 10:10:56;;;;;;;20.13;9.82;;;;;;;18.71;97.56;101757.06;5037383;28;20172;-45
2023/06/09 10:13:22;;;;;;;21.40;9.73;;;;;;;18.65;98.25;101749.25;5040084;28;20647;-43
2023/06/09 10:15:51;;;;;;;21.30;10.05;;;;;;;18.78;98.42;101758.47;5038051;28;20183;-45
2023/06/09 10:18:16;;;;;;;22.55;10.40;;;;;;;18.76;98.62;101751.34;5043741;28;20171;-44
2023/06/09 10:20:43;;;;;;;19.95;9.25;;;;;;;18.89;98.27;101747.88;5040291;28;20179;-45
2023/06/09 10:23:09;;;;;;;19.88;9.20;;;;;;;19.11;97.84;101750.22;5039985;28;20207;-44
2023/06/09 10:25:35;;;;;;;15.35;8.45;;;;;;;19.40;97.37;101744.84;5039657;28;20201;-46
2023/06/09 10:28:01;;;;;;;17.17;8.90;;;;;;;19.24;96.39;101755.78;5046890;28;20236;-45
2023/06/09 10:30:27;;;;;;;16.05;8.70;;;;;;;19.17;96.49;101739.94;5037672;28;20334;-45
2023/06/09 10:33:05;;;;;;;17.23;9.35;;;;;;;19.18;96.67;101739.84;5073321;28;20176;-45
2023/06/09 10:35:34;;;;;;;18.98;9.27;;;;;;;19.06;96.74;101752.31;5077277;28;20190;-45
2023/06/09 10:38:19;;;;;;;16.35;8.60;;;;;;;19.20;97.39;101754.22;5036088;28;20272;-44
2023/06/09 10:40:49;;;;;;;17.95;9.57;;;;;;;19.04;97.49;101762.38;5039236;28;20180;-45
2023/06/09 10:43:40;;;;;;;18.27;9.05;;;;;;;19.21;98.44;101750.53;5039245;28;20259;-43
2023/06/09 10:46:07;;;;;;;16.50;9.15;;;;;;;19.13;98.38;101758.25;5039330;28;20211;-45
2023/06/09 10:48:49;;;;;;;17.95;8.65;;;;;;;19.25;97.67;101757.53;5041627;28;20274;-44
2023/06/09 10:51:27;;;;;;;22.23;8.75;;;;;;;19.21;97.14;101752.38;5039482;28;20551;-43
2023/06/09 10:54:09;;;;;;;16.23;9.13;;;;;;;19.09;97.16;101759.41;5045919;28;20273;-45
2023/06/09 10:56:36;;;;;;;16.55;8.93;;;;;;;19.20;97.93;101756.94;5038235;28;20242;-44
2023/06/09 10:59:02;;;;;;;20.23;9.48;;;;;;;19.19;97.68;101763.31;5036608;28;20194;-46
2023/06/09 11:01:28;;;;;;;13.65;8.93;;;;;;;19.15;96.59;101761.75;5044376;28;20645;-46
2023/06/09 11:03:54;;;;;;;19.35;9.25;;;;;;;19.08;97.13;101757.66;5039912;28;20242;-46
2023/06/09 11:06:20;;;;;;;16.10;9.18;;;;;;;19.18;97.42;101761.59;5072870;28;20226;-46
2023/06/09 11:09:08;;;;;;;16.85;8.57;;;;;;;19.29;97.51;101755.50;5037588;28;20192;-45
2023/06/09 11:11:51;;;;;;;18.02;9.10;;;;;;;19.14;96.80;101758.16;5038442;28;20229;-45
2023/06/09 11:14:47;;;;;;;17.67;9.80;;;;;;;19.06;97.57;101756.88;5038991;28;20179;-45
2023/06/09 11:17:22;;;;;;;15.68;9.23;;;;;;;19.39;97.84;101767.56;5037173;28;20218;-46
2023/06/09 11:19:49;;;;;;;16.80;9.75;;;;;;;18.99;98.22;101759.06;5040975;28;20683;-44
2023/06/09 11:22:15;;;;;;;16.92;10.43;;;;;;;18.99;99.74;101764.50;5040550;28;20190;-45
2023/06/09 11:24:51;;;;;;;18.02;10.68;;;;;;;18.72;100.00;101767.84;5037891;28;20191;-43
2023/06/09 11:27:21;;;;;;;16.20;10.57;;;;;;;18.89;100.00;101760.56;5030902;28;20294;-42
2023/06/09 11:30:11;;;;;;;15.90;10.73;;;;;;;19.18;100.00;101755.28;5031473;28;20176;-42
2023/06/09 11:33:03;;;;;;;18.45;10.98;;;;;;;19.03;100.00;101757.06;5032203;28;20198;-42
2023/06/09 11:35:28;;;;;;;19.00;10.75;;;;;;;19.26;99.86;101753.84;5031736;28;20148;-41
2023/06/09 11:37:57;;;;;;;15.73;9.82;;;;;;;19.62;98.99;101751.72;5032047;28;20200;-40